createdAt,value
2022-12-12T13:43:38.917Z,100239.69
2022-12-12T13:46:38.451Z,100233.31
2022-12-12T13:49:17.600Z,100249.16
2022-12-12T13:51:49.596Z,100242.88
2022-12-12T13:54:20.205Z,100243.09
2022-12-12T13:57:11.157Z,100239.84
2022-12-12T13:59:54.094Z,100251.09
2022-12-12T14:02:37.966Z,100250.47
2022-12-12T14:05:23.660Z,100249.47
2022-12-12T14:08:24.061Z,100252.28
2022-12-12T14:11:15.186Z,100256.34
2022-12-12T14:13:51.183Z,100257.56
2022-12-12T14:16:29.920Z,100267.47
2022-12-12T14:19:10.234Z,100267.50
2022-12-12T14:21:47.474Z,100247.97
2022-12-12T14:25:12.484Z,100261.06
2022-12-12T14:27:55.074Z,100256.59
2022-12-12T14:30:33.020Z,100262.53
2022-12-12T14:33:37.635Z,100256.63
2022-12-12T14:36:26.782Z,100255.81
2022-12-12T14:39:14.585Z,100257.75
2022-12-12T14:41:49.611Z,100266.13
2022-12-12T14:44:36.206Z,100261.59
2022-12-12T14:47:16.714Z,100270.84
2022-12-12T14:50:07.784Z,100273.91
2022-12-12T14:52:36.926Z,100272.94
2022-12-12T14:55:09.279Z,100279.75
2022-12-12T14:57:40.294Z,100270.06
2022-12-12T15:00:19.532Z,100282.50
2022-12-12T15:02:58.171Z,100289.00
2022-12-12T15:05:26.384Z,100292.97
2022-12-12T15:08:01.461Z,100292.19
2022-12-12T15:10:33.688Z,100292.50
2022-12-12T15:13:05.359Z,100297.84
2022-12-12T15:15:38.291Z,100298.25
2022-12-12T15:18:13.327Z,100284.91
2022-12-12T15:20:49.725Z,100296.56
2022-12-12T15:23:26.607Z,100294.56
2022-12-12T15:25:58.228Z,100295.72
2022-12-12T15:28:30.096Z,100297.28
2022-12-12T15:31:14.923Z,100300.16
2022-12-12T15:33:44.305Z,100297.38
2022-12-12T15:36:21.877Z,100305.72
2022-12-12T15:39:17.029Z,100304.13
2022-12-12T15:41:51.414Z,100298.03
2022-12-12T15:44:21.354Z,100311.84
2022-12-12T15:46:54.211Z,100309.00
2022-12-12T15:49:43.688Z,100316.19
2022-12-12T15:52:42.348Z,100323.00
2022-12-12T15:55:28.663Z,100331.44
2022-12-12T15:58:00.379Z,100321.44
2022-12-12T16:00:40.617Z,100333.56
2022-12-12T16:03:17.790Z,100328.66
2022-12-12T16:05:58.503Z,100325.91
2022-12-12T16:08:48.714Z,100341.44
2022-12-12T16:11:43.027Z,100335.06
2022-12-12T16:14:22.979Z,100333.50
2022-12-12T16:20:30.572Z,100336.28
2022-12-12T16:23:20.488Z,100337.09
2022-12-12T16:25:53.587Z,100324.56
2022-12-12T16:28:34.341Z,100327.31
2022-12-12T16:31:17.905Z,100324.50
2022-12-12T16:33:50.653Z,100326.19
2022-12-12T16:36:29.944Z,100326.09
2022-12-12T16:39:06.567Z,100322.94
2022-12-12T16:41:43.508Z,100334.97
2022-12-12T16:44:16.756Z,100338.22
2022-12-12T16:46:50.023Z,100338.56
2022-12-12T16:49:29.407Z,100341.75
2022-12-12T16:52:14.926Z,100338.56
2022-12-12T16:54:54.755Z,100346.28
2022-12-12T16:57:25.808Z,100359.72
2022-12-12T17:00:18.380Z,100351.22
2022-12-12T17:02:56.077Z,100352.72
2022-12-12T17:05:44.585Z,100358.56
2022-12-12T17:08:23.705Z,100366.78
2022-12-12T17:11:10.187Z,100371.56
2022-12-12T17:13:51.066Z,100364.34
2022-12-12T17:16:27.954Z,100369.56
2022-12-12T17:19:03.342Z,100365.81
2022-12-12T17:21:38.474Z,100356.06
2022-12-12T17:24:24.314Z,100355.91
2022-12-12T17:27:04.608Z,100355.56
2022-12-12T17:29:47.118Z,100358.16
2022-12-12T17:32:20.237Z,100364.03
2022-12-12T17:34:57.710Z,100363.13
2022-12-12T17:37:39.478Z,100355.63
2022-12-12T17:40:19.671Z,100361.13
2022-12-12T17:42:51.385Z,100360.78
2022-12-12T17:45:21.430Z,100366.53
2022-12-12T17:48:00.857Z,100361.72
2022-12-12T17:50:41.215Z,100366.44
2022-12-12T17:53:09.791Z,100374.06
2022-12-12T17:55:54.486Z,100372.84
2022-12-12T17:58:45.175Z,100370.94
2022-12-12T18:01:21.835Z,100377.38
2022-12-12T18:03:50.757Z,100375.53
2022-12-12T18:06:26.464Z,100383.13
2022-12-12T18:09:02.585Z,100382.44
2022-12-12T18:11:41.766Z,100382.91
2022-12-12T18:14:19.141Z,100381.56
2022-12-12T18:16:53.677Z,100379.91
2022-12-12T18:19:28.943Z,100382.72
2022-12-12T18:22:02.509Z,100381.53
2022-12-12T18:24:33.148Z,100392.69
2022-12-12T18:27:09.321Z,100393.66
2022-12-12T18:29:40.778Z,100396.22
2022-12-12T18:32:11.624Z,100382.91
2022-12-12T18:34:42.281Z,100389.88
2022-12-12T18:37:09.993Z,100389.78
2022-12-12T18:39:42.098Z,100392.69
2022-12-12T18:42:17.847Z,100379.81
2022-12-12T18:44:48.816Z,100382.66
2022-12-12T18:47:24.918Z,100389.97
2022-12-12T18:49:55.491Z,100386.31
2022-12-12T18:52:26.800Z,100386.31
2022-12-12T18:54:56.717Z,100385.94
2022-12-12T18:57:28.027Z,100392.78
2022-12-12T19:00:02.807Z,100388.44
2022-12-12T19:02:39.967Z,100393.19
2022-12-12T19:05:13.557Z,100387.09
2022-12-12T19:07:51.980Z,100378.72
2022-12-12T19:10:22.297Z,100380.44
2022-12-12T19:12:55.439Z,100374.81
2022-12-12T19:15:26.242Z,100372.00
2022-12-12T19:17:59.699Z,100386.00
2022-12-12T19:20:36.236Z,100394.41
2022-12-12T19:23:06.892Z,100398.69
2022-12-12T19:25:42.567Z,100399.19
2022-12-12T19:28:11.641Z,100394.34
2022-12-12T19:30:42.704Z,100403.00
2022-12-12T19:33:13.405Z,100396.97
2022-12-12T19:35:46.936Z,100404.91
2022-12-12T19:38:22.740Z,100396.94
2022-12-12T19:40:54.541Z,100396.28
2022-12-12T19:43:30.989Z,100392.25
2022-12-12T19:46:04.771Z,100392.53
2022-12-12T19:48:33.324Z,100384.84
2022-12-12T19:51:13.218Z,100395.44
2022-12-12T19:53:50.093Z,100393.41
2022-12-12T19:56:30.909Z,100392.09
2022-12-12T19:59:00.258Z,100396.44
2022-12-12T20:01:30.784Z,100392.47
2022-12-12T20:04:14.593Z,100393.66
2022-12-12T20:06:49.330Z,100399.78
2022-12-12T20:09:24.400Z,100394.84
2022-12-12T20:11:52.728Z,100393.66
2022-12-12T20:14:34.769Z,100396.81
2022-12-12T20:17:08.141Z,100388.72
2022-12-12T20:19:38.932Z,100386.78
2022-12-12T20:22:13.977Z,100380.69
2022-12-12T20:24:45.224Z,100387.91
2022-12-12T20:27:19.353Z,100386.31
2022-12-12T20:29:50.153Z,100382.34
2022-12-12T20:32:24.875Z,100397.16
2022-12-12T20:34:56.376Z,100391.94
2022-12-12T20:37:30.929Z,100390.94
2022-12-12T20:40:04.501Z,100394.09
2022-12-12T20:42:37.060Z,100386.50
2022-12-12T20:45:08.466Z,100387.31
2022-12-12T20:47:41.499Z,100390.97
2022-12-12T20:50:20.405Z,100395.31
2022-12-12T20:52:54.007Z,100395.28
2022-12-12T20:55:27.304Z,100409.22
2022-12-12T20:57:57.717Z,100406.88
2022-12-12T21:00:29.918Z,100398.06
2022-12-12T21:02:57.798Z,100405.66
2022-12-12T21:05:29.986Z,100413.25
2022-12-12T21:08:05.722Z,100410.63
2022-12-12T21:10:34.539Z,100411.44
2022-12-12T21:13:09.907Z,100407.88
2022-12-12T21:15:40.103Z,100414.25
2022-12-12T21:18:13.332Z,100412.25
2022-12-12T21:20:49.386Z,100412.63
2022-12-12T21:23:22.874Z,100417.09
2022-12-12T21:25:55.212Z,100409.88
2022-12-12T21:28:28.577Z,100410.19
2022-12-12T21:30:56.632Z,100404.53
2022-12-12T21:33:28.878Z,100406.84
2022-12-12T21:36:09.098Z,100402.78
2022-12-12T21:38:39.600Z,100402.00
2022-12-12T21:41:11.187Z,100405.34
2022-12-12T21:43:45.946Z,100409.34
2022-12-12T21:46:21.293Z,100407.69
2022-12-12T21:49:10.547Z,100409.78
2022-12-12T21:51:48.417Z,100407.72
2022-12-12T21:54:16.185Z,100411.66
2022-12-12T21:56:51.437Z,100412.47
2022-12-12T21:59:24.770Z,100417.50
2022-12-12T22:02:04.012Z,100408.09
2022-12-12T22:04:42.791Z,100412.59
2022-12-12T22:07:13.135Z,100409.72
2022-12-12T22:09:57.723Z,100403.38
2022-12-12T22:12:36.813Z,100404.78
2022-12-12T22:15:07.545Z,100400.91
2022-12-12T22:17:43.953Z,100406.00
2022-12-12T22:20:14.313Z,100402.41
2022-12-12T22:22:45.241Z,100404.78
2022-12-12T22:25:18.100Z,100410.94
2022-12-12T22:27:50.209Z,100405.78
2022-12-12T22:30:22.320Z,100411.38
2022-12-12T22:32:52.418Z,100413.47
2022-12-12T22:35:26.738Z,100419.53
2022-12-12T22:38:00.275Z,100414.75
2022-12-12T22:40:33.221Z,100416.94
2022-12-12T22:43:06.088Z,100415.53
2022-12-12T22:45:44.845Z,100423.53
2022-12-12T22:48:20.405Z,100412.97
2022-12-12T22:50:48.265Z,100422.00
2022-12-12T22:53:16.090Z,100422.69
2022-12-12T22:55:46.912Z,100427.88
2022-12-12T22:58:20.831Z,100437.91
2022-12-12T23:00:48.437Z,100434.22
2022-12-12T23:03:21.601Z,100436.84
2022-12-12T23:05:52.296Z,100426.84
2022-12-12T23:08:25.360Z,100412.91
2022-12-12T23:11:04.362Z,100431.75
2022-12-12T23:13:35.223Z,100427.84
2022-12-12T23:16:13.144Z,100420.25
2022-12-12T23:18:41.678Z,100418.38
2022-12-12T23:21:17.293Z,100427.56
2022-12-12T23:23:48.546Z,100421.06
2022-12-12T23:26:26.012Z,100418.38
2022-12-12T23:28:55.943Z,100421.00
2022-12-12T23:31:29.061Z,100415.13
2022-12-12T23:34:02.585Z,100405.75
2022-12-12T23:36:32.995Z,100412.03
2022-12-12T23:39:04.377Z,100412.81
2022-12-12T23:41:38.406Z,100401.84
2022-12-12T23:44:21.051Z,100412.22
2022-12-12T23:46:52.225Z,100414.22
2022-12-12T23:49:26.839Z,100401.97
2022-12-12T23:52:02.490Z,100405.25
2022-12-12T23:54:35.047Z,100406.00
2022-12-12T23:57:07.661Z,100405.16
2022-12-12T23:59:36.205Z,100402.94
